Ankara, Turkey

3:18 AM EEST on July 31, 2016 (GMT +0300)
Esenboga | | Change Station

Elev 3114 ft 40.13 °N, 33.00 °E | Updated 28 minutes ago

Clear
Clear
64 °F
Feels Like 64 °F
N
2
Wind Variable Wind from NE

Today
High -- | Low -- °F
--% Chance of Precip.
Yesterday
High -- | Low -- °F
Precip. -- in
Pressure 29.95 in
Visibility -9999.0 miles
Clouds
Dew Point 54 °F
Humidity 68%
Rainfall 0.00 in
Snow Depth Not available.
5:45 AM 8:02 PM
Waning Crescent, 10% visible
METAR LTAC 302350Z 04002KT CAVOK 18/12 Q1014 NOSIG RMK RWY21L 06004KT 350V130 RWY03L 03004KT RWY21R 02004KT
Pressure 29.95 in
Visibility -9999.0 miles
Clouds
Dew Point 54 °F
Humidity 68%
Rainfall 0.00 in
Snow Depth Not available.
5:45 AM 8:02 PM
Waning Crescent, 10% visible
METAR LTAC 302350Z 04002KT CAVOK 18/12 Q1014 NOSIG RMK RWY21L 06004KT 350V130 RWY03L 03004KT RWY21R 02004KT

10-Day Weather Forecast

×

Almanac

Astronomy

Jul. 31, 2016 Rise Set
Actual Time
Civil Twilight
Nautical Twilight
Astronomical Twilight
Moon
Length of Visible Light
Length of Day
Tomorrow will be .
, % of the Moon is Illuminated

Today's Extremes

Country Highs Country Lows

Community

WunderPhotos

Upload Photos

1,928,682 photos uploaded!

WunderBlog® & News

Nearby

Air Quality

  Air Quality AQ Index Pollutant
Not available.

Snow Depth

Station Depth Elevation

Earthquake Activity

City Distance Mag. Time & Date
Minimum magnitude displayed is 2.5.

Coastal Water Temperatures

Place Temperature

Stations

Nearby Weather Stations

Station Location Temp. Windchill Dew Point Humidity Wind Precip. Elev Updated Type